createdAt,value
2023-01-26T00:05:09.873Z,6.50
2023-01-26T00:11:18.007Z,7.40
2023-01-26T00:17:26.952Z,8.63
2023-01-26T00:23:32.179Z,9.37
2023-01-26T00:29:34.061Z,8.97
2023-01-26T00:35:35.997Z,11.30
2023-01-26T00:41:56.047Z,10.87
2023-01-26T00:47:58.058Z,23.10
2023-01-26T00:53:59.956Z,20.47
2023-01-26T01:00:02.060Z,22.67
2023-01-26T01:06:04.272Z,21.60
2023-01-26T01:12:06.390Z,19.37
2023-01-26T01:18:08.288Z,18.73
2023-01-26T01:24:14.154Z,21.33
2023-01-26T01:30:16.121Z,20.00
2023-01-26T01:36:18.067Z,20.93
2023-01-26T01:42:20.420Z,21.20
2023-01-26T01:48:28.478Z,22.13
2023-01-26T01:55:02.068Z,22.43
2023-01-26T02:01:04.114Z,20.23
2023-01-26T02:07:06.212Z,17.30
2023-01-26T02:13:08.672Z,20.87
2023-01-26T02:19:26.375Z,19.87
2023-01-26T02:25:57.219Z,23.37
2023-01-26T02:31:59.152Z,23.90
2023-01-26T02:38:01.163Z,28.43
2023-01-26T02:44:07.281Z,24.37
2023-01-26T02:50:10.859Z,28.23
2023-01-26T02:56:12.986Z,23.97
2023-01-26T03:02:15.186Z,26.03
2023-01-26T03:08:17.413Z,25.67
2023-01-26T03:14:19.732Z,28.87
2023-01-26T03:20:39.898Z,27.37
2023-01-26T03:27:00.320Z,34.70
2023-01-26T03:33:02.197Z,31.90
2023-01-26T03:39:05.535Z,29.23
2023-01-26T03:45:26.896Z,30.07
2023-01-26T03:51:47.045Z,33.17
2023-01-26T03:57:49.332Z,28.40
2023-01-26T04:04:11.138Z,37.30
2023-01-26T04:10:13.212Z,32.57
2023-01-26T04:16:34.209Z,42.27
2023-01-26T04:22:45.150Z,41.13
2023-01-26T04:28:47.083Z,39.13
2023-01-26T04:34:48.986Z,47.87
2023-01-26T04:40:54.916Z,42.00
2023-01-26T04:46:56.790Z,43.40
2023-01-26T04:52:58.706Z,49.40
2023-01-26T04:59:04.425Z,45.77
2023-01-26T05:05:06.895Z,49.23
2023-01-26T05:11:09.002Z,48.27
2023-01-26T05:17:10.962Z,51.40
2023-01-26T05:23:13.064Z,55.97
2023-01-26T05:29:15.055Z,54.17
2023-01-26T05:35:17.208Z,51.07
2023-01-26T05:41:19.086Z,49.77
2023-01-26T05:47:21.091Z,52.10
2023-01-26T05:53:23.002Z,53.30
2023-01-26T05:59:24.873Z,62.63
2023-01-26T06:05:26.803Z,49.13
2023-01-26T06:11:28.782Z,42.40
2023-01-26T06:17:30.717Z,48.43
2023-01-26T06:23:32.634Z,44.20
2023-01-26T06:29:34.584Z,37.13
2023-01-26T06:35:36.538Z,39.90
2023-01-26T06:41:39.565Z,47.53
2023-01-26T06:47:50.020Z,36.37
2023-01-26T06:53:59.098Z,49.73
2023-01-26T07:00:01.016Z,41.10
2023-01-26T07:06:02.962Z,48.17
2023-01-26T07:12:04.953Z,51.07
2023-01-26T07:18:06.972Z,44.70
2023-01-26T07:24:10.089Z,48.53
2023-01-26T07:30:16.084Z,51.67
2023-01-26T07:36:17.967Z,50.53
2023-01-26T07:42:19.887Z,42.80
2023-01-26T07:48:24.365Z,52.67
2023-01-26T07:54:26.344Z,43.83
2023-01-26T08:00:28.234Z,45.77
2023-01-26T08:06:30.122Z,34.47
2023-01-26T08:12:38.064Z,42.93
2023-01-26T08:18:43.284Z,46.00
2023-01-26T08:24:45.183Z,38.70
2023-01-26T08:30:47.104Z,37.50
2023-01-26T08:36:49.491Z,35.20
2023-01-26T08:42:52.618Z,31.97
2023-01-26T08:48:54.518Z,38.13
2023-01-26T08:54:56.407Z,22.67
2023-01-26T09:00:58.453Z,27.93
2023-01-26T09:07:00.398Z,23.90
2023-01-26T09:13:02.470Z,30.60
2023-01-26T09:19:05.157Z,25.13
2023-01-26T09:25:07.684Z,26.23
2023-01-26T09:31:11.842Z,24.40
2023-01-26T09:37:14.894Z,23.33
2023-01-26T09:43:47.910Z,29.70
2023-01-26T09:50:25.660Z,22.57
2023-01-26T09:56:32.531Z,30.03
2023-01-26T10:03:11.081Z,31.80
2023-01-26T10:09:33.262Z,40.80
2023-01-26T10:15:41.079Z,40.93
2023-01-26T10:21:47.752Z,34.13
2023-01-26T10:27:49.717Z,43.23
2023-01-26T10:34:10.710Z,41.77
2023-01-26T10:40:13.397Z,45.00
2023-01-26T10:46:36.193Z,44.20
2023-01-26T10:52:38.136Z,49.53
2023-01-26T10:58:57.402Z,36.33
2023-01-26T11:05:09.762Z,34.60
2023-01-26T11:11:32.084Z,36.67
2023-01-26T11:17:45.725Z,36.50
2023-01-26T11:24:13.962Z,35.07
2023-01-26T11:31:02.197Z,37.57
2023-01-26T11:37:41.491Z,55.30
2023-01-26T11:44:08.044Z,95.43
2023-01-26T11:50:36.797Z,51.77
2023-01-26T11:56:52.458Z,35.80
2023-01-26T12:03:04.662Z,46.33
2023-01-26T12:09:22.860Z,44.43
2023-01-26T12:15:37.043Z,50.47
2023-01-26T12:21:44.067Z,50.17
2023-01-26T12:28:20.782Z,79.90
2023-01-26T12:34:33.640Z,56.53
2023-01-26T12:41:14.201Z,44.57
2023-01-26T12:47:36.184Z,53.33
2023-01-26T12:54:36.940Z,51.73
2023-01-26T13:00:39.873Z,49.27
2023-01-26T13:06:42.239Z,49.67
2023-01-26T13:12:53.489Z,54.37
2023-01-26T13:18:57.641Z,55.13
2023-01-26T13:25:16.422Z,57.30
2023-01-26T13:31:34.572Z,53.60
2023-01-26T13:38:29.901Z,57.97
2023-01-26T13:44:45.465Z,87.83
2023-01-26T13:50:51.733Z,104.57
2023-01-26T13:57:06.919Z,112.90
2023-01-26T14:03:22.868Z,63.50
2023-01-26T14:09:32.625Z,55.43
2023-01-26T14:15:35.205Z,61.17
2023-01-26T14:22:01.034Z,71.63
2023-01-26T14:28:03.436Z,59.27
2023-01-26T14:34:10.668Z,67.50
2023-01-26T14:40:19.796Z,66.03
2023-01-26T14:46:30.847Z,76.93
2023-01-26T14:52:40.320Z,59.73
2023-01-26T14:58:42.543Z,73.80
2023-01-26T15:04:58.906Z,68.27
2023-01-26T15:11:21.971Z,73.37
2023-01-26T15:17:38.445Z,72.93
2023-01-26T15:23:51.941Z,67.73
2023-01-26T15:29:59.878Z,54.00
2023-01-26T15:36:02.150Z,57.53
2023-01-26T15:42:15.318Z,57.10
2023-01-26T15:48:17.499Z,52.23
2023-01-26T15:54:19.409Z,45.77
2023-01-26T16:00:22.481Z,37.47
2023-01-26T16:06:31.367Z,35.77
2023-01-26T16:12:33.373Z,40.53
2023-01-26T16:18:35.329Z,37.33
2023-01-26T16:24:38.416Z,37.33
2023-01-26T16:30:42.020Z,28.37
2023-01-26T16:36:43.957Z,29.30
2023-01-26T16:42:50.927Z,58.40
2023-01-26T16:48:53.293Z,45.43
2023-01-26T16:54:55.241Z,29.77
2023-01-26T17:00:57.600Z,23.00
2023-01-26T17:06:59.518Z,22.83
2023-01-26T17:13:01.762Z,20.90
2023-01-26T17:19:03.735Z,20.90
2023-01-26T17:25:07.259Z,17.90
2023-01-26T17:31:17.564Z,17.17
2023-01-26T17:37:21.509Z,14.87
2023-01-26T17:43:23.846Z,16.03
2023-01-26T17:49:25.802Z,17.00
2023-01-26T17:55:27.700Z,18.07
2023-01-26T18:01:29.812Z,22.33
2023-01-26T18:07:31.730Z,23.90
2023-01-26T18:13:34.284Z,17.43
2023-01-26T18:19:36.170Z,18.37
2023-01-26T18:25:38.178Z,16.77
2023-01-26T18:31:40.926Z,25.40
2023-01-26T18:37:42.925Z,18.93
2023-01-26T18:43:46.904Z,16.80
2023-01-26T18:49:48.847Z,13.80
2023-01-26T18:55:55.172Z,25.87
2023-01-26T19:02:00.215Z,17.07
2023-01-26T19:08:10.202Z,12.57
2023-01-26T19:14:12.115Z,13.23
2023-01-26T19:20:14.118Z,13.07
2023-01-26T19:26:19.572Z,13.57
2023-01-26T19:32:21.464Z,16.40
2023-01-26T19:38:23.827Z,23.40
2023-01-26T19:44:25.849Z,18.90
2023-01-26T19:50:27.786Z,12.50
2023-01-26T19:56:33.019Z,10.80
2023-01-26T20:02:35.223Z,12.23
2023-01-26T20:08:37.147Z,13.40
2023-01-26T20:14:39.184Z,12.67
2023-01-26T20:20:41.105Z,16.50
2023-01-26T20:26:44.480Z,28.23
2023-01-26T20:32:46.653Z,17.70
2023-01-26T20:38:49.683Z,16.43
2023-01-26T20:44:51.705Z,10.50
2023-01-26T20:50:53.602Z,5.57
2023-01-26T20:56:55.501Z,6.50
2023-01-26T21:02:57.380Z,10.70
2023-01-26T21:09:00.982Z,7.63
2023-01-26T21:15:06.998Z,10.60
2023-01-26T21:21:12.791Z,20.27
2023-01-26T21:27:15.092Z,6.43
2023-01-26T21:33:16.991Z,6.03
2023-01-26T21:39:21.119Z,3.63
2023-01-26T21:45:42.643Z,4.77
2023-01-26T21:52:03.630Z,5.87
2023-01-26T21:58:23.972Z,5.90
2023-01-26T22:04:30.004Z,5.57
2023-01-26T22:10:32.032Z,8.40
2023-01-26T22:16:34.100Z,7.10
2023-01-26T22:22:36.006Z,7.20
2023-01-26T22:28:37.925Z,8.87
2023-01-26T22:34:40.315Z,4.93
2023-01-26T22:40:42.205Z,3.67
2023-01-26T22:46:44.149Z,3.33
2023-01-26T22:52:46.012Z,5.20
2023-01-26T22:58:59.492Z,5.00
2023-01-26T23:05:02.055Z,4.20
2023-01-26T23:11:13.958Z,2.70
2023-01-26T23:17:15.863Z,2.47
2023-01-26T23:23:19.197Z,2.83
2023-01-26T23:29:21.091Z,2.77
2023-01-26T23:35:25.524Z,2.27
2023-01-26T23:41:28.300Z,2.90
2023-01-26T23:47:30.803Z,2.20
2023-01-26T23:53:33.225Z,2.77
2023-01-26T23:59:35.149Z,3.00
